createdAt,value
2022-09-15T00:02:20.344Z,79.32
2022-09-15T00:04:47.478Z,78.83
2022-09-15T00:07:14.509Z,77.09
2022-09-15T00:09:41.490Z,76.98
2022-09-15T00:12:08.502Z,77.07
2022-09-15T00:14:35.505Z,77.99
2022-09-15T00:17:02.451Z,78.65
2022-09-15T00:19:29.595Z,78.49
2022-09-15T00:21:56.542Z,77.07
2022-09-15T00:24:23.517Z,76.86
2022-09-15T00:26:50.529Z,77.03
2022-09-15T00:29:17.670Z,77.29
2022-09-15T00:31:44.633Z,77.78
2022-09-15T00:34:12.697Z,77.82
2022-09-15T00:36:40.054Z,76.01
2022-09-15T00:39:07.192Z,75.71
2022-09-15T00:41:34.277Z,76.43
2022-09-15T00:44:04.315Z,76.77
2022-09-15T00:46:33.779Z,77.87
2022-09-15T00:49:08.039Z,78.40
2022-09-15T00:52:07.185Z,78.65
2022-09-15T00:54:44.579Z,77.37
2022-09-15T00:57:16.213Z,77.98
2022-09-15T00:59:43.402Z,78.63
2022-09-15T01:02:15.683Z,78.55
2022-09-15T01:04:43.057Z,79.81
2022-09-15T01:07:12.966Z,79.45
2022-09-15T01:09:45.703Z,77.86
2022-09-15T01:12:12.751Z,77.51
2022-09-15T01:14:39.732Z,78.41
2022-09-15T01:17:29.483Z,79.83
2022-09-15T01:20:38.739Z,80.96
2022-09-15T01:23:37.320Z,79.27
2022-09-15T01:26:19.729Z,79.21
2022-09-15T01:29:08.713Z,79.95
2022-09-15T01:32:00.253Z,81.01
2022-09-15T01:34:27.272Z,81.24
2022-09-15T01:36:55.985Z,80.08
2022-09-15T01:39:28.511Z,78.49
2022-09-15T01:42:00.258Z,78.73
2022-09-15T01:44:36.737Z,79.18
2022-09-15T01:47:06.641Z,79.90
2022-09-15T01:49:40.346Z,80.60
2022-09-15T01:52:07.642Z,79.80
2022-09-15T01:54:40.689Z,78.93
2022-09-15T01:57:07.610Z,79.15
2022-09-15T01:59:34.506Z,80.17
2022-09-15T02:02:07.197Z,81.27
2022-09-15T02:04:44.885Z,81.25
2022-09-15T02:07:38.622Z,80.29
2022-09-15T02:10:11.692Z,80.84
2022-09-15T02:12:53.508Z,82.42
2022-09-15T02:15:36.126Z,82.99
2022-09-15T02:18:04.291Z,81.29
2022-09-15T02:20:39.821Z,80.60
2022-09-15T02:23:10.292Z,80.92
2022-09-15T02:25:46.154Z,82.27
2022-09-15T02:28:13.782Z,82.48
2022-09-15T02:30:42.141Z,81.07
2022-09-15T02:33:12.252Z,80.92
2022-09-15T02:35:39.515Z,81.04
2022-09-15T02:38:07.626Z,83.00
2022-09-15T02:40:35.348Z,82.99
2022-09-15T02:43:05.566Z,82.23
2022-09-15T02:45:32.676Z,82.37
2022-09-15T02:47:59.983Z,82.70
2022-09-15T02:50:27.236Z,83.65
2022-09-15T02:52:57.574Z,82.31
2022-09-15T02:55:27.683Z,81.94
2022-09-15T02:57:56.238Z,81.93
2022-09-15T03:00:23.224Z,82.62
2022-09-15T03:02:51.818Z,83.99
2022-09-15T03:05:29.500Z,83.59
2022-09-15T03:07:56.667Z,82.31
2022-09-15T03:10:24.712Z,82.58
2022-09-15T03:12:53.224Z,83.31
2022-09-15T03:15:22.502Z,83.68
2022-09-15T03:17:49.852Z,82.19
2022-09-15T03:20:19.060Z,81.30
2022-09-15T03:22:46.095Z,80.93
2022-09-15T03:25:13.767Z,80.98
2022-09-15T03:27:41.006Z,81.11
2022-09-15T03:30:08.877Z,82.36
2022-09-15T03:32:36.273Z,81.82
2022-09-15T03:35:04.429Z,80.87
2022-09-15T03:37:31.511Z,80.86
2022-09-15T03:39:58.575Z,81.65
2022-09-15T03:42:25.958Z,83.05
2022-09-15T03:44:53.220Z,84.19
2022-09-15T03:47:20.187Z,83.29
2022-09-15T03:49:47.873Z,82.33
2022-09-15T03:52:14.965Z,81.90
2022-09-15T03:54:42.189Z,81.54
2022-09-15T03:57:09.191Z,81.83
2022-09-15T03:59:36.315Z,81.39
2022-09-15T04:02:03.615Z,79.99
2022-09-15T04:04:31.736Z,79.18
2022-09-15T04:06:58.888Z,79.37
2022-09-15T04:09:26.145Z,80.15
2022-09-15T04:11:53.290Z,81.01
2022-09-15T04:14:20.442Z,81.84
2022-09-15T04:16:47.653Z,81.12
2022-09-15T04:19:15.190Z,81.56
2022-09-15T04:21:42.606Z,82.73
2022-09-15T04:24:09.756Z,83.46
2022-09-15T04:26:37.055Z,84.20
2022-09-15T04:29:05.669Z,82.76
2022-09-15T04:31:33.403Z,81.70
2022-09-15T04:34:00.649Z,82.01
2022-09-15T04:36:28.641Z,83.66
2022-09-15T04:38:56.558Z,84.47
2022-09-15T04:41:24.104Z,83.46
2022-09-15T04:43:51.666Z,81.84
2022-09-15T04:46:18.967Z,81.33
2022-09-15T04:48:46.488Z,81.93
2022-09-15T04:51:15.572Z,82.65
2022-09-15T04:53:43.437Z,83.90
2022-09-15T04:56:15.799Z,83.36
2022-09-15T04:58:47.670Z,81.03
2022-09-15T05:01:20.022Z,81.32
2022-09-15T05:03:47.395Z,82.35
2022-09-15T05:06:16.680Z,83.37
2022-09-15T05:08:46.821Z,83.24
2022-09-15T05:11:14.272Z,81.54
2022-09-15T05:13:41.624Z,81.57
2022-09-15T05:16:12.253Z,81.71
2022-09-15T05:18:40.328Z,82.73
2022-09-15T05:21:08.008Z,82.72
2022-09-15T05:23:35.652Z,81.74
2022-09-15T05:26:05.332Z,81.36
2022-09-15T05:28:33.479Z,81.83
2022-09-15T05:31:00.606Z,83.35
2022-09-15T05:33:27.684Z,82.72
2022-09-15T05:35:57.213Z,81.47
2022-09-15T05:38:24.888Z,81.33
2022-09-15T05:40:52.058Z,81.77
2022-09-15T05:43:19.200Z,82.67
2022-09-15T05:45:54.745Z,82.50
2022-09-15T05:48:22.119Z,81.14
2022-09-15T05:50:50.378Z,81.02
2022-09-15T05:53:17.585Z,82.21
2022-09-15T05:55:44.678Z,83.96
2022-09-15T05:58:11.803Z,82.57
2022-09-15T06:00:39.088Z,81.91
2022-09-15T06:03:06.289Z,82.25
2022-09-15T06:05:33.256Z,82.60
2022-09-15T06:08:00.424Z,82.46
2022-09-15T06:10:27.631Z,82.01
2022-09-15T06:12:54.937Z,80.23
2022-09-15T06:15:23.002Z,79.65
2022-09-15T06:17:49.976Z,79.67
2022-09-15T06:20:17.725Z,79.76
2022-09-15T06:22:47.705Z,80.93
2022-09-15T06:25:15.324Z,80.16
2022-09-15T06:27:42.546Z,78.71
2022-09-15T06:30:10.405Z,78.47
2022-09-15T06:32:37.350Z,78.86
2022-09-15T06:35:07.364Z,79.68
2022-09-15T06:37:34.945Z,80.66
2022-09-15T06:40:02.449Z,79.94
2022-09-15T06:42:29.615Z,78.51
2022-09-15T06:44:57.193Z,78.86
2022-09-15T06:47:24.174Z,79.94
2022-09-15T06:49:53.355Z,82.18
2022-09-15T06:52:20.488Z,83.34
2022-09-15T06:54:47.742Z,81.95
2022-09-15T06:57:14.895Z,81.93
2022-09-15T06:59:42.858Z,82.40
2022-09-15T07:02:10.121Z,83.18
2022-09-15T07:04:37.268Z,83.40
2022-09-15T07:07:04.756Z,81.94
2022-09-15T07:09:32.072Z,78.89
2022-09-15T07:11:59.202Z,78.84
2022-09-15T07:14:26.283Z,80.37
2022-09-15T07:16:53.530Z,81.19
2022-09-15T07:19:20.526Z,81.94
2022-09-15T07:21:47.617Z,81.72
2022-09-15T07:24:14.815Z,79.55
2022-09-15T07:26:42.331Z,80.37
2022-09-15T07:29:09.988Z,80.58
2022-09-15T07:31:38.358Z,80.65
2022-09-15T07:34:05.935Z,80.07
2022-09-15T07:36:33.183Z,78.72
2022-09-15T07:39:00.335Z,78.83
2022-09-15T07:41:29.252Z,79.21
2022-09-15T07:43:57.930Z,79.85
2022-09-15T07:46:26.037Z,80.55
2022-09-15T07:48:56.594Z,79.94
2022-09-15T07:51:24.269Z,78.31
2022-09-15T07:53:51.700Z,78.36
2022-09-15T07:56:18.952Z,80.46
2022-09-15T07:58:49.421Z,79.50
2022-09-15T08:01:17.142Z,77.97
2022-09-15T08:03:46.505Z,79.69
2022-09-15T08:06:13.751Z,79.62
2022-09-15T08:08:41.280Z,79.89
2022-09-15T08:11:09.199Z,80.56
2022-09-15T08:13:36.508Z,78.77
2022-09-15T08:16:30.246Z,78.65
2022-09-15T08:18:57.536Z,78.79
2022-09-15T08:21:24.587Z,79.14
2022-09-15T08:23:56.334Z,78.52
2022-09-15T08:26:24.211Z,75.97
2022-09-15T08:28:51.304Z,74.91
2022-09-15T08:31:18.535Z,75.60
2022-09-15T08:33:50.163Z,76.82
2022-09-15T08:36:17.408Z,76.06
2022-09-15T08:38:45.089Z,76.50
2022-09-15T08:41:17.843Z,75.07
2022-09-15T08:44:09.988Z,73.04
2022-09-15T08:46:42.548Z,73.81
2022-09-15T08:49:30.775Z,74.15
2022-09-15T08:52:30.119Z,74.25
2022-09-15T08:54:58.618Z,75.42
2022-09-15T08:57:26.467Z,74.96
2022-09-15T08:59:54.920Z,75.00
2022-09-15T09:02:31.295Z,74.95
2022-09-15T09:05:19.917Z,74.89
2022-09-15T09:08:00.524Z,76.81
2022-09-15T09:10:39.766Z,75.76
2022-09-15T09:13:18.968Z,72.92
2022-09-15T09:16:01.340Z,71.62
2022-09-15T09:18:34.447Z,73.11
2022-09-15T09:21:26.933Z,73.28
2022-09-15T09:24:17.430Z,73.65
2022-09-15T09:26:46.423Z,74.21
2022-09-15T09:29:20.834Z,74.33
2022-09-15T09:31:49.362Z,73.48
2022-09-15T09:34:27.949Z,73.55
2022-09-15T09:36:59.190Z,73.64
2022-09-15T09:39:27.877Z,75.17
2022-09-15T09:41:55.438Z,76.13
2022-09-15T09:44:32.125Z,75.35
2022-09-15T09:47:00.079Z,75.10
2022-09-15T09:49:42.887Z,75.86
2022-09-15T09:52:09.877Z,76.37
2022-09-15T09:54:37.089Z,76.70
2022-09-15T09:57:13.342Z,74.31
2022-09-15T09:59:45.321Z,72.95
2022-09-15T10:02:12.421Z,74.07
2022-09-15T10:04:44.282Z,75.06
2022-09-15T10:07:11.916Z,75.43
2022-09-15T10:09:39.175Z,75.37
2022-09-15T10:12:06.501Z,74.67
2022-09-15T10:14:33.654Z,74.73
2022-09-15T10:17:17.279Z,75.07
2022-09-15T10:19:47.298Z,76.35
2022-09-15T10:22:34.932Z,77.07
2022-09-15T10:25:18.568Z,75.81
2022-09-15T10:27:45.715Z,75.94
2022-09-15T10:30:12.815Z,75.40
2022-09-15T10:32:40.133Z,74.88
2022-09-15T10:35:11.573Z,75.90
2022-09-15T10:38:00.018Z,75.91
2022-09-15T10:40:48.790Z,75.26
2022-09-15T10:43:44.696Z,74.68
2022-09-15T10:46:24.336Z,74.59
2022-09-15T10:48:58.374Z,74.79
2022-09-15T10:52:00.632Z,75.13
2022-09-15T10:54:36.924Z,72.69
2022-09-15T10:57:12.024Z,71.83
2022-09-15T11:00:00.812Z,71.81
2022-09-15T11:02:54.038Z,73.79
2022-09-15T11:05:49.051Z,75.01
2022-09-15T11:08:19.267Z,76.92
2022-09-15T11:11:04.644Z,75.89
2022-09-15T11:13:44.697Z,76.73
2022-09-15T11:16:44.135Z,78.04
2022-09-15T11:25:29.917Z,80.75
2022-09-15T11:27:59.458Z,78.65
2022-09-15T11:30:33.400Z,77.63
2022-09-15T11:33:07.179Z,78.06
2022-09-15T11:35:37.304Z,79.03
2022-09-15T11:39:56.862Z,79.85
2022-09-15T12:07:39.914Z,86.61
2022-09-15T12:10:30.920Z,83.42
2022-09-15T12:12:59.426Z,80.84
2022-09-15T12:15:26.848Z,80.22
2022-09-15T12:18:37.091Z,79.74
2022-09-15T12:21:35.380Z,80.38
2022-09-15T12:24:17.800Z,78.74
2022-09-15T12:26:46.122Z,77.92
2022-09-15T12:29:25.422Z,77.75
2022-09-15T12:32:21.851Z,77.79
2022-09-15T12:34:59.245Z,77.41
2022-09-15T12:37:35.908Z,76.48
2022-09-15T12:40:06.235Z,75.75
2022-09-15T12:42:34.728Z,76.14
2022-09-15T12:45:20.719Z,76.22
2022-09-15T12:47:49.854Z,74.79
2022-09-15T12:50:16.660Z,72.43
2022-09-15T12:53:02.972Z,72.19
2022-09-15T12:55:34.026Z,71.16
2022-09-15T12:58:08.919Z,70.33
2022-09-15T13:01:06.847Z,70.06
2022-09-15T13:03:30.049Z,69.81
2022-09-15T13:06:24.150Z,67.90
2022-09-15T13:08:52.208Z,66.65
2022-09-15T13:11:28.809Z,67.23
2022-09-15T13:14:08.326Z,67.91
2022-09-15T13:16:41.512Z,69.72
2022-09-15T13:19:14.614Z,70.44
2022-09-15T13:21:43.687Z,71.19
2022-09-15T13:24:24.254Z,71.80
2022-09-15T13:26:52.939Z,70.44
2022-09-15T13:29:19.993Z,70.12
2022-09-15T13:31:59.557Z,70.64
2022-09-15T13:35:09.063Z,70.27
2022-09-15T13:38:12.649Z,70.97
2022-09-15T13:40:38.721Z,70.58
2022-09-15T13:43:40.122Z,70.15
2022-09-15T13:46:27.639Z,68.73
2022-09-15T13:49:30.061Z,68.54
2022-09-15T13:52:15.992Z,68.71
2022-09-15T13:55:10.435Z,69.40
2022-09-15T14:00:27.016Z,71.41
2022-09-15T14:02:59.128Z,69.76
2022-09-15T14:05:28.709Z,68.95
2022-09-15T14:08:01.260Z,69.64
2022-09-15T14:10:31.896Z,70.22
2022-09-15T14:13:01.860Z,71.40
2022-09-15T14:15:29.071Z,71.77
2022-09-15T14:17:56.154Z,72.62
2022-09-15T14:20:31.501Z,71.70
2022-09-15T14:22:59.432Z,70.77
2022-09-15T14:25:27.741Z,70.21
2022-09-15T14:27:55.097Z,71.05
2022-09-15T14:30:23.301Z,71.64
2022-09-15T14:32:54.892Z,72.87
2022-09-15T14:35:27.000Z,73.73
2022-09-15T14:37:57.003Z,72.79
2022-09-15T14:40:34.352Z,72.00
2022-09-15T14:43:01.447Z,72.57
2022-09-15T14:46:01.443Z,73.62
2022-09-15T14:48:28.405Z,73.41
2022-09-15T14:51:02.186Z,72.59
2022-09-15T14:53:30.689Z,71.96
2022-09-15T14:56:08.269Z,71.63
2022-09-15T14:59:06.990Z,72.85
2022-09-15T15:02:07.104Z,74.18
2022-09-15T15:04:40.986Z,75.16
2022-09-15T15:07:26.597Z,73.91
2022-09-15T15:10:01.781Z,73.82
2022-09-15T15:12:35.575Z,74.63
2022-09-15T15:15:03.309Z,75.52
2022-09-15T15:17:36.421Z,76.75
2022-09-15T15:20:09.685Z,75.73
2022-09-15T15:22:40.708Z,74.91
2022-09-15T15:25:41.983Z,75.23
2022-09-15T15:28:31.146Z,76.13
2022-09-15T15:31:13.783Z,76.26
2022-09-15T15:33:47.153Z,76.17
2022-09-15T15:36:14.108Z,74.74
2022-09-15T15:38:50.058Z,74.99
2022-09-15T15:41:27.961Z,75.45
2022-09-15T15:44:08.347Z,76.69
2022-09-15T15:47:01.792Z,77.44
2022-09-15T15:49:32.463Z,75.96
2022-09-15T15:52:00.419Z,75.67
2022-09-15T15:54:27.620Z,76.15
2022-09-15T15:56:55.006Z,77.19
2022-09-15T15:59:22.042Z,78.39
2022-09-15T16:01:51.411Z,79.58
2022-09-15T16:04:18.692Z,78.47
2022-09-15T16:06:45.742Z,77.18
2022-09-15T16:09:13.933Z,78.08
2022-09-15T16:11:42.427Z,78.89
2022-09-15T16:14:12.426Z,80.04
2022-09-15T16:16:39.745Z,80.93
2022-09-15T16:19:08.755Z,79.58
2022-09-15T16:21:39.358Z,78.47
2022-09-15T16:24:07.174Z,79.24
2022-09-15T16:26:38.091Z,80.21
2022-09-15T16:29:05.382Z,80.76
2022-09-15T16:31:32.973Z,79.46
2022-09-15T16:34:00.156Z,78.84
2022-09-15T16:36:27.162Z,78.61
2022-09-15T16:38:54.294Z,79.18
2022-09-15T16:41:28.378Z,80.20
2022-09-15T16:43:58.303Z,79.52
2022-09-15T16:46:25.478Z,77.78
2022-09-15T16:48:52.453Z,77.78
2022-09-15T16:51:27.949Z,78.27
2022-09-15T16:53:57.732Z,78.86
2022-09-15T16:56:24.892Z,79.87
2022-09-15T16:58:58.940Z,78.79
2022-09-15T17:01:27.167Z,78.01
2022-09-15T17:03:54.317Z,78.36
2022-09-15T17:06:22.443Z,79.35
2022-09-15T17:08:49.752Z,79.87
2022-09-15T17:11:20.964Z,79.22
2022-09-15T17:13:48.141Z,78.14
2022-09-15T17:16:16.660Z,78.34
2022-09-15T17:18:43.691Z,79.22
2022-09-15T17:21:11.952Z,80.18
2022-09-15T17:23:44.681Z,81.09
2022-09-15T17:26:20.282Z,80.12
2022-09-15T17:28:47.633Z,78.54
2022-09-15T17:31:18.714Z,78.99
2022-09-15T17:33:45.925Z,79.86
2022-09-15T17:36:13.183Z,80.91
2022-09-15T17:38:45.011Z,80.63
2022-09-15T17:41:17.426Z,78.69
2022-09-15T17:43:44.693Z,77.54
2022-09-15T17:46:12.098Z,78.15
2022-09-15T17:48:39.394Z,79.04
2022-09-15T17:51:07.439Z,80.50
2022-09-15T17:53:34.530Z,81.71
2022-09-15T17:56:01.950Z,81.11
2022-09-15T17:58:31.571Z,79.65
2022-09-15T18:00:58.733Z,79.60
2022-09-15T18:03:35.291Z,80.30
2022-09-15T18:06:05.348Z,80.82
2022-09-15T18:08:38.890Z,82.01
2022-09-15T18:11:06.674Z,80.83
2022-09-15T18:13:34.296Z,79.13
2022-09-15T18:16:06.767Z,78.56
2022-09-15T18:18:34.459Z,79.57
2022-09-15T18:21:01.503Z,80.30
2022-09-15T18:23:29.791Z,81.41
2022-09-15T18:25:57.647Z,80.48
2022-09-15T18:28:24.905Z,79.07
2022-09-15T18:30:52.018Z,78.69
2022-09-15T18:33:24.107Z,79.55
2022-09-15T18:35:53.036Z,81.01
2022-09-15T18:38:20.162Z,81.98
2022-09-15T18:40:49.225Z,82.33
2022-09-15T18:43:17.309Z,81.01
2022-09-15T18:45:44.468Z,81.21
2022-09-15T18:48:13.105Z,82.48
2022-09-15T18:50:41.419Z,83.58
2022-09-15T18:53:08.485Z,84.92
2022-09-15T18:55:35.567Z,83.89
2022-09-15T18:58:02.845Z,82.35
2022-09-15T19:00:29.851Z,82.00
2022-09-15T19:03:00.975Z,82.98
2022-09-15T19:05:28.944Z,84.46
2022-09-15T19:07:56.243Z,83.43
2022-09-15T19:10:26.759Z,81.48
2022-09-15T19:12:54.502Z,81.36
2022-09-15T19:15:24.497Z,81.45
2022-09-15T19:17:51.579Z,82.33
2022-09-15T19:20:18.497Z,81.38
2022-09-15T19:22:46.384Z,80.10
2022-09-15T19:25:13.725Z,79.83
2022-09-15T19:27:41.444Z,80.83
2022-09-15T19:30:10.274Z,81.41
2022-09-15T19:32:38.538Z,82.86
2022-09-15T19:35:06.858Z,81.33
2022-09-15T19:37:37.128Z,79.74
2022-09-15T19:40:08.345Z,79.03
2022-09-15T19:42:36.561Z,79.90
2022-09-15T19:45:03.923Z,80.12
2022-09-15T19:47:30.961Z,81.19
2022-09-15T19:49:58.229Z,80.14
2022-09-15T19:52:25.468Z,78.01
2022-09-15T19:54:52.620Z,77.82
2022-09-15T19:57:20.070Z,78.35
2022-09-15T19:59:47.197Z,79.00
2022-09-15T20:02:14.377Z,80.13
2022-09-15T20:04:41.832Z,80.00
2022-09-15T20:07:08.989Z,77.90
2022-09-15T20:09:36.335Z,77.60
2022-09-15T20:12:03.868Z,78.11
2022-09-15T20:14:31.568Z,78.75
2022-09-15T20:17:01.183Z,80.20
2022-09-15T20:19:29.783Z,81.48
2022-09-15T20:21:56.956Z,81.12
2022-09-15T20:24:24.354Z,79.82
2022-09-15T20:26:51.928Z,79.39
2022-09-15T20:29:19.676Z,79.28
2022-09-15T20:31:46.861Z,79.70
2022-09-15T20:34:13.887Z,80.41
2022-09-15T20:36:41.032Z,81.09
2022-09-15T20:39:10.715Z,80.73
2022-09-15T20:41:38.087Z,79.75
2022-09-15T20:44:09.304Z,79.41
2022-09-15T20:46:36.589Z,79.60
2022-09-15T20:49:04.661Z,80.01
2022-09-15T20:51:32.731Z,80.37
2022-09-15T20:54:01.009Z,80.98
2022-09-15T20:56:28.853Z,81.21
2022-09-15T20:58:57.366Z,79.91
2022-09-15T21:01:36.437Z,79.81
2022-09-15T21:04:04.082Z,79.99
2022-09-15T21:06:31.804Z,81.68
2022-09-15T21:08:58.772Z,82.43
2022-09-15T21:11:26.708Z,80.96
2022-09-15T21:13:54.676Z,78.48
2022-09-15T21:16:26.250Z,78.13
2022-09-15T21:18:53.646Z,78.66
2022-09-15T21:21:25.302Z,79.49
2022-09-15T21:23:54.339Z,80.20
2022-09-15T21:26:26.265Z,80.89
2022-09-15T21:28:54.499Z,80.36
2022-09-15T21:31:26.425Z,79.71
2022-09-15T21:33:54.120Z,79.38
2022-09-15T21:36:23.420Z,79.69
2022-09-15T21:38:51.685Z,79.71
2022-09-15T21:41:21.591Z,79.95
2022-09-15T21:43:49.271Z,80.86
2022-09-15T21:46:18.415Z,80.92
2022-09-15T21:48:47.401Z,79.13
2022-09-15T21:51:17.992Z,78.61
2022-09-15T21:53:51.170Z,78.81
2022-09-15T21:56:18.187Z,79.01
2022-09-15T21:58:45.091Z,80.00
2022-09-15T22:01:19.089Z,81.29
2022-09-15T22:03:51.631Z,80.95
2022-09-15T22:06:19.842Z,78.93
2022-09-15T22:08:46.964Z,78.38
2022-09-15T22:11:14.325Z,78.31
2022-09-15T22:13:43.331Z,79.17
2022-09-15T22:16:15.560Z,79.98
2022-09-15T22:18:42.706Z,80.30
2022-09-15T22:21:13.740Z,80.75
2022-09-15T22:23:40.922Z,78.76
2022-09-15T22:26:10.531Z,78.78
2022-09-15T22:28:37.999Z,78.87
2022-09-15T22:31:06.805Z,79.86
2022-09-15T22:33:34.366Z,80.69
2022-09-15T22:36:02.001Z,81.69
2022-09-15T22:38:30.002Z,81.76
2022-09-15T22:41:02.871Z,80.17
2022-09-15T22:43:30.210Z,80.07
2022-09-15T22:45:57.312Z,80.94
2022-09-15T22:48:24.508Z,81.72
2022-09-15T22:50:51.458Z,82.65
2022-09-15T22:53:18.377Z,82.71
2022-09-15T22:55:45.448Z,81.24
2022-09-15T22:58:12.315Z,80.46
2022-09-15T23:00:39.486Z,80.91
2022-09-15T23:03:06.840Z,81.25
2022-09-15T23:05:34.687Z,81.74
2022-09-15T23:08:01.913Z,81.62
2022-09-15T23:10:30.521Z,79.91
2022-09-15T23:13:00.930Z,79.55
2022-09-15T23:15:29.096Z,79.64
2022-09-15T23:17:56.065Z,80.12
2022-09-15T23:20:23.192Z,80.38
2022-09-15T23:22:50.269Z,81.15
2022-09-15T23:25:17.409Z,80.86
2022-09-15T23:27:44.443Z,79.38
2022-09-15T23:30:12.551Z,78.45
2022-09-15T23:32:39.559Z,78.21
2022-09-15T23:35:07.454Z,78.56
2022-09-15T23:37:34.469Z,79.13
2022-09-15T23:40:01.742Z,79.66
2022-09-15T23:42:28.836Z,79.17
2022-09-15T23:44:56.021Z,78.52
2022-09-15T23:47:22.998Z,78.54
2022-09-15T23:49:50.322Z,78.52
2022-09-15T23:52:17.308Z,79.50
2022-09-15T23:54:44.135Z,80.18
2022-09-15T23:57:11.982Z,81.68
2022-09-15T23:59:38.947Z,81.31
